^^
Station Historical Data
Daily Summary for July 28, 2017 Units:  Both    English   Metric
« Previous Day
Next Day »
Daily Weekly Monthly Yearly Custom
  High: Low: Average:
Temperature: 72.0 °F /  22.2 °C 45.3 °F /  7.4 °C 56.9 °F /  13.8 °C
Dew Point: 31.5 °F /  -0.3 °C 22.8 °F /  -5.1 °C 28.1 °F /  -2.2 °C
Humidity: 49% 21% 35%
Wind Speed: 14.1mph /  22.7km/h - 1mph /  1.6km/h
Wind Gust: 16.0mph /  25.7km/h - -
Wind- - ESE
Pressure: 30.47 in /  1031.7 hPa 30.34 in /  1027.3 hPa -
Precipitation: 0.00 in /  0 mm    
Historical Graphs
 
 
Tabular Data for July 28, 2017
Time Temperature Dew Point Pressure Wind Wind Speed Wind Gust Humidity Rainfall Rate (Hourly) solar Conditions
00:03 48.7 °F /  9.3 °C 23.0 °F /  -5 °C 30.41in /  1029.7hPa Calm   2.0mph /  3.2km/h 36% 0.00in /  0mm 0.0 W/m2
00:09 48.7 °F /  9.3 °C 23.0 °F /  -5 °C 30.41in /  1029.7hPa Calm     36% 0.00in /  0mm 0.0 W/m2
00:15 48.6 °F /  9.2 °C 22.8 °F /  -5.1 °C 30.41in /  1029.7hPa Calm   3.0mph /  4.8km/h 36% 0.00in /  0mm 0.0 W/m2
00:21 48.6 °F /  9.2 °C 22.8 °F /  -5.1 °C 30.41in /  1029.7hPa Calm   1.0mph /  1.6km/h 36% 0.00in /  0mm 0.0 W/m2
00:27 48.4 °F /  9.1 °C 23.4 °F /  -4.8 °C 30.41in /  1029.7hPa Calm   1.0mph /  1.6km/h 37% 0.00in /  0mm 0.0 W/m2
00:33 48.0 °F /  8.9 °C 23.0 °F /  -5 °C 30.41in /  1029.7hPa Calm   1.0mph /  1.6km/h 37% 0.00in /  0mm 0.0 W/m2
00:39 47.8 °F /  8.8 °C 22.8 °F /  -5.1 °C 30.41in /  1029.7hPa Calm     37% 0.00in /  0mm 0.0 W/m2
00:45 47.7 °F /  8.7 °C 23.4 °F /  -4.8 °C 30.41in /  1029.7hPa Calm   1.0mph /  1.6km/h 38% 0.00in /  0mm 0.0 W/m2
00:51 47.5 °F /  8.6 °C 23.2 °F /  -4.9 °C 30.41in /  1029.7hPa Calm   1.0mph /  1.6km/h 38% 0.00in /  0mm 0.0 W/m2
00:57 47.1 °F /  8.4 °C 22.8 °F /  -5.1 °C 30.41in /  1029.7hPa Calm   1.0mph /  1.6km/h 38% 0.00in /  0mm 0.0 W/m2
01:03 46.9 °F /  8.3 °C 23.2 °F /  -4.9 °C 30.41in /  1029.7hPa Calm   1.0mph /  1.6km/h 39% 0.00in /  0mm 0.0 W/m2
01:09 46.8 °F /  8.2 °C 23.2 °F /  -4.9 °C 30.41in /  1029.7hPa Calm     39% 0.00in /  0mm 0.0 W/m2
01:15 46.6 °F /  8.1 °C 23.0 °F /  -5 °C 30.41in /  1029.7hPa Calm   2.0mph /  3.2km/h 39% 0.00in /  0mm 0.0 W/m2
01:21 46.6 °F /  8.1 °C 23.0 °F /  -5 °C 30.41in /  1029.7hPa Calm   2.0mph /  3.2km/h 39% 0.00in /  0mm 0.0 W/m2
01:28 46.6 °F /  8.1 °C 23.5 °F /  -4.7 °C 30.41in /  1029.7hPa Calm   2.0mph /  3.2km/h 40% 0.00in /  0mm 0.0 W/m2
01:34 46.4 °F /  8 °C 23.4 °F /  -4.8 °C 30.40in /  1029.3hPa Calm   3.0mph /  4.8km/h 40% 0.00in /  0mm 0.0 W/m2
01:40 46.4 °F /  8 °C 23.4 °F /  -4.8 °C 30.40in /  1029.3hPa Calm   3.0mph /  4.8km/h 40% 0.00in /  0mm 0.0 W/m2
01:46 46.2 °F /  7.9 °C 23.2 °F /  -4.9 °C 30.40in /  1029.3hPa Calm   1.0mph /  1.6km/h 40% 0.00in /  0mm 0.0 W/m2
01:52 46.2 °F /  7.9 °C 23.2 °F /  -4.9 °C 30.40in /  1029.3hPa Calm   1.0mph /  1.6km/h 40% 0.00in /  0mm 0.0 W/m2
01:58 46.0 °F /  7.8 °C 23.7 °F /  -4.6 °C 30.40in /  1029.3hPa Calm   1.0mph /  1.6km/h 41% 0.00in /  0mm 0.0 W/m2
02:04 45.9 °F /  7.7 °C 23.5 °F /  -4.7 °C 30.40in /  1029.3hPa Calm   3.0mph /  4.8km/h 41% 0.00in /  0mm 0.0 W/m2
02:10 45.7 °F /  7.6 °C 23.4 °F /  -4.8 °C 30.40in /  1029.3hPa Calm   1.0mph /  1.6km/h 41% 0.00in /  0mm 0.0 W/m2
02:17 45.3 °F /  7.4 °C 23.5 °F /  -4.7 °C 30.40in /  1029.3hPa Calm   1.0mph /  1.6km/h 42% 0.00in /  0mm 0.0 W/m2
02:23 45.3 °F /  7.4 °C 23.5 °F /  -4.7 °C 30.40in /  1029.3hPa Calm   2.0mph /  3.2km/h 42% 0.00in /  0mm 0.0 W/m2
02:29 45.3 °F /  7.4 °C 23.5 °F /  -4.7 °C 30.39in /  1029hPa Calm   2.0mph /  3.2km/h 42% 0.00in /  0mm 0.0 W/m2
02:35 45.3 °F /  7.4 °C 23.5 °F /  -4.7 °C 30.40in /  1029.3hPa Calm   1.0mph /  1.6km/h 42% 0.00in /  0mm 0.0 W/m2
02:41 45.3 °F /  7.4 °C 24.1 °F /  -4.4 °C 30.40in /  1029.3hPa Calm   1.0mph /  1.6km/h 43% 0.00in /  0mm 0.0 W/m2
02:47 45.3 °F /  7.4 °C 24.1 °F /  -4.4 °C 30.40in /  1029.3hPa Calm     43% 0.00in /  0mm 0.0 W/m2
02:53 45.3 °F /  7.4 °C 24.1 °F /  -4.4 °C 30.40in /  1029.3hPa Calm   3.0mph /  4.8km/h 43% 0.00in /  0mm 0.0 W/m2
03:00 45.3 °F /  7.4 °C 24.1 °F /  -4.4 °C 30.40in /  1029.3hPa Calm   2.0mph /  3.2km/h 43% 0.00in /  0mm 0.0 W/m2
03:06 45.3 °F /  7.4 °C 24.1 °F /  -4.4 °C 30.40in /  1029.3hPa Calm   2.0mph /  3.2km/h 43% 0.00in /  0mm 0.0 W/m2
03:12 45.5 °F /  7.5 °C 24.3 °F /  -4.3 °C 30.39in /  1029hPa ESE 2.0mph /  3.2km/h 4.0mph /  6.4km/h 43% 0.00in /  0mm 0.0 W/m2
03:18 45.7 °F /  7.6 °C 25.0 °F /  -3.9 °C 30.39in /  1029hPa Calm   4.0mph /  6.4km/h 44% 0.00in /  0mm 0.0 W/m2
03:24 46.0 °F /  7.8 °C 25.3 °F /  -3.7 °C 30.39in /  1029hPa Calm     44% 0.00in /  0mm 0.0 W/m2
03:30 46.2 °F /  7.9 °C 25.5 °F /  -3.6 °C 30.39in /  1029hPa Calm   1.0mph /  1.6km/h 44% 0.00in /  0mm 0.0 W/m2
03:36 46.6 °F /  8.1 °C 25.9 °F /  -3.4 °C 30.39in /  1029hPa Calm   2.0mph /  3.2km/h 44% 0.00in /  0mm 0.0 W/m2
03:43 46.6 °F /  8.1 °C 25.3 °F /  -3.7 °C 30.39in /  1029hPa Calm     43% 0.00in /  0mm 0.0 W/m2
03:49 46.6 °F /  8.1 °C 25.3 °F /  -3.7 °C 30.39in /  1029hPa Calm   1.0mph /  1.6km/h 43% 0.00in /  0mm 0.0 W/m2
03:55 46.6 °F /  8.1 °C 25.9 °F /  -3.4 °C 30.39in /  1029hPa SSE 0.9mph /  1.4km/h 1.0mph /  1.6km/h 44% 0.00in /  0mm 0.0 W/m2
04:01 46.9 °F /  8.3 °C 25.5 °F /  -3.6 °C 30.39in /  1029hPa ENE 0.9mph /  1.4km/h 5.0mph /  8km/h 43% 0.00in /  0mm 0.0 W/m2
04:07 47.5 °F /  8.6 °C 25.5 °F /  -3.6 °C 30.39in /  1029hPa Calm   2.0mph /  3.2km/h 42% 0.00in /  0mm 0.0 W/m2
04:13 47.7 °F /  8.7 °C 25.7 °F /  -3.5 °C 30.39in /  1029hPa East 2.9mph /  4.7km/h 4.0mph /  6.4km/h 42% 0.00in /  0mm 0.0 W/m2
04:19 47.5 °F /  8.6 °C 25.5 °F /  -3.6 °C 30.39in /  1029hPa Calm   5.0mph /  8km/h 42% 0.00in /  0mm 0.0 W/m2
04:26 47.3 °F /  8.5 °C 25.3 °F /  -3.7 °C 30.39in /  1029hPa Calm   4.0mph /  6.4km/h 42% 0.00in /  0mm 0.0 W/m2
04:32 47.1 °F /  8.4 °C 25.2 °F /  -3.8 °C 30.39in /  1029hPa East 2.0mph /  3.2km/h 6.0mph /  9.7km/h 42% 0.00in /  0mm 0.0 W/m2
04:38 47.1 °F /  8.4 °C 25.2 °F /  -3.8 °C 30.39in /  1029hPa Calm   3.0mph /  4.8km/h 42% 0.00in /  0mm 0.0 W/m2
04:44 47.1 °F /  8.4 °C 25.7 °F /  -3.5 °C 30.39in /  1029hPa Calm   2.0mph /  3.2km/h 43% 0.00in /  0mm 0.0 W/m2
04:50 46.9 °F /  8.3 °C 25.5 °F /  -3.6 °C 30.39in /  1029hPa Calm     43% 0.00in /  0mm 0.0 W/m2
04:56 46.6 °F /  8.1 °C 25.3 °F /  -3.7 °C 30.40in /  1029.3hPa Calm   6.0mph /  9.7km/h 43% 0.00in /  0mm 0.0 W/m2
05:03 46.6 °F /  8.1 °C 25.9 °F /  -3.4 °C 30.40in /  1029.3hPa East 0.9mph /  1.4km/h 5.0mph /  8km/h 44% 0.00in /  0mm 0.0 W/m2
05:09 46.6 °F /  8.1 °C 25.9 °F /  -3.4 °C 30.40in /  1029.3hPa Calm   3.0mph /  4.8km/h 44% 0.00in /  0mm 0.0 W/m2
05:15 46.6 °F /  8.1 °C 25.9 °F /  -3.4 °C 30.39in /  1029hPa East 2.0mph /  3.2km/h 2.0mph /  3.2km/h 44% 0.00in /  0mm 0.0 W/m2
05:21 46.8 °F /  8.2 °C 26.1 °F /  -3.3 °C 30.40in /  1029.3hPa Calm   1.0mph /  1.6km/h 44% 0.00in /  0mm 0.0 W/m2
05:27 46.6 °F /  8.1 °C 25.9 °F /  -3.4 °C 30.40in /  1029.3hPa Calm   1.0mph /  1.6km/h 44% 0.00in /  0mm 0.0 W/m2
05:33 46.8 °F /  8.2 °C 26.1 °F /  -3.3 °C 30.40in /  1029.3hPa Calm   1.0mph /  1.6km/h 44% 0.00in /  0mm 0.0 W/m2
05:39 46.8 °F /  8.2 °C 26.1 °F /  -3.3 °C 30.40in /  1029.3hPa Calm   1.0mph /  1.6km/h 44% 0.00in /  0mm 0.0 W/m2
05:45 46.8 °F /  8.2 °C 26.1 °F /  -3.3 °C 30.41in /  1029.7hPa ENE 2.0mph /  3.2km/h 4.0mph /  6.4km/h 44% 0.00in /  0mm 0.0 W/m2
05:52 46.8 °F /  8.2 °C 26.1 °F /  -3.3 °C 30.41in /  1029.7hPa Calm   3.0mph /  4.8km/h 44% 0.00in /  0mm 0.0 W/m2
05:58 46.8 °F /  8.2 °C 26.1 °F /  -3.3 °C 30.41in /  1029.7hPa Calm   2.0mph /  3.2km/h 44% 0.00in /  0mm 0.0 W/m2
06:04 46.8 °F /  8.2 °C 26.6 °F /  -3 °C 30.41in /  1029.7hPa Calm   1.0mph /  1.6km/h 45% 0.00in /  0mm 0.0 W/m2
06:16 46.6 °F /  8.1 °C 26.4 °F /  -3.1 °C 30.41in /  1029.7hPa Calm   1.0mph /  1.6km/h 45% 0.00in /  0mm 0.0 W/m2
06:22 46.6 °F /  8.1 °C 26.4 °F /  -3.1 °C 30.41in /  1029.7hPa Calm   3.0mph /  4.8km/h 45% 0.00in /  0mm 0.0 W/m2
06:29 46.6 °F /  8.1 °C 27.0 °F /  -2.8 °C 30.41in /  1029.7hPa Calm     46% 0.00in /  0mm 0.0 W/m2
06:35 46.6 °F /  8.1 °C 27.0 °F /  -2.8 °C 30.42in /  1030hPa Calm   1.0mph /  1.6km/h 46% 0.00in /  0mm 7.0 W/m2
06:41 46.6 °F /  8.1 °C 27.0 °F /  -2.8 °C 30.42in /  1030hPa ENE 0.9mph /  1.4km/h 5.0mph /  8km/h 46% 0.00in /  0mm 9.0 W/m2
06:47 46.8 °F /  8.2 °C 27.1 °F /  -2.7 °C 30.42in /  1030hPa Calm   5.0mph /  8km/h 46% 0.00in /  0mm 12.0 W/m2
06:53 47.1 °F /  8.4 °C 27.3 °F /  -2.6 °C 30.43in /  1030.4hPa Calm   7.0mph /  11.3km/h 46% 0.00in /  0mm 14.0 W/m2
06:59 47.5 °F /  8.6 °C 27.1 °F /  -2.7 °C 30.43in /  1030.4hPa Calm   2.0mph /  3.2km/h 45% 0.00in /  0mm 16.0 W/m2
07:05 47.7 °F /  8.7 °C 27.9 °F /  -2.3 °C 30.44in /  1030.7hPa Calm   4.0mph /  6.4km/h 46% 0.00in /  0mm 18.0 W/m2
07:12 48.0 °F /  8.9 °C 27.7 °F /  -2.4 °C 30.44in /  1030.7hPa Calm   6.0mph /  9.7km/h 45% 0.00in /  0mm 19.0 W/m2
07:18 48.4 °F /  9.1 °C 28.0 °F /  -2.2 °C 30.44in /  1030.7hPa Calm   4.0mph /  6.4km/h 45% 0.00in /  0mm 21.0 W/m2
07:30 48.9 °F /  9.4 °C 28.6 °F /  -1.9 °C 30.44in /  1030.7hPa East 2.0mph /  3.2km/h 7.0mph /  11.3km/h 45% 0.00in /  0mm 23.0 W/m2
07:36 49.5 °F /  9.7 °C 28.9 °F /  -1.7 °C 30.44in /  1030.7hPa Calm   5.0mph /  8km/h 45% 0.00in /  0mm 25.0 W/m2
07:42 49.8 °F /  9.9 °C 28.8 °F /  -1.8 °C 30.44in /  1030.7hPa Calm   6.0mph /  9.7km/h 44% 0.00in /  0mm 26.0 W/m2
07:48 50.5 °F /  10.3 °C 29.5 °F /  -1.4 °C 30.45in /  1031hPa ENE 2.0mph /  3.2km/h 4.0mph /  6.4km/h 44% 0.00in /  0mm 28.0 W/m2
07:54 51.1 °F /  10.6 °C 28.8 °F /  -1.8 °C 30.45in /  1031hPa ESE 2.0mph /  3.2km/h 6.0mph /  9.7km/h 42% 0.00in /  0mm 28.0 W/m2
08:00 51.6 °F /  10.9 °C 29.3 °F /  -1.5 °C 30.45in /  1031hPa ESE 0.9mph /  1.4km/h 4.0mph /  6.4km/h 42% 0.00in /  0mm 30.0 W/m2
08:06 52.3 °F /  11.3 °C 29.3 °F /  -1.5 °C 30.46in /  1031.4hPa Calm     41% 0.00in /  0mm 32.0 W/m2
08:13 52.9 °F /  11.6 °C 29.8 °F /  -1.2 °C 30.46in /  1031.4hPa Calm   1.0mph /  1.6km/h 41% 0.00in /  0mm 33.0 W/m2
08:19 53.8 °F /  12.1 °C 30.0 °F /  -1.1 °C 30.46in /  1031.4hPa Calm   3.0mph /  4.8km/h 40% 0.00in /  0mm 329.0 W/m2
08:25 54.9 °F /  12.7 °C 30.9 °F /  -0.6 °C 30.46in /  1031.4hPa East 2.0mph /  3.2km/h 5.0mph /  8km/h 40% 0.00in /  0mm 371.0 W/m2
08:31 56.3 °F /  13.5 °C 30.4 °F /  -0.9 °C 30.46in /  1031.4hPa Calm   5.0mph /  8km/h 37% 0.00in /  0mm 392.0 W/m2
08:37 57.6 °F /  14.2 °C 30.7 °F /  -0.7 °C 30.46in /  1031.4hPa ESE 2.0mph /  3.2km/h 7.0mph /  11.3km/h 36% 0.00in /  0mm 410.0 W/m2
08:43 58.8 °F /  14.9 °C 30.6 °F /  -0.8 °C 30.46in /  1031.4hPa Calm   7.0mph /  11.3km/h 34% 0.00in /  0mm 429.0 W/m2
08:49 60.1 °F /  15.6 °C 30.9 °F /  -0.6 °C 30.46in /  1031.4hPa Calm   5.0mph /  8km/h 33% 0.00in /  0mm 448.0 W/m2
08:55 61.0 °F /  16.1 °C 30.9 °F /  -0.6 °C 30.47in /  1031.7hPa Calm   7.0mph /  11.3km/h 32% 0.00in /  0mm 466.0 W/m2
09:01 61.7 °F /  16.5 °C 30.0 °F /  -1.1 °C 30.47in /  1031.7hPa Calm   4.0mph /  6.4km/h 30% 0.00in /  0mm 483.0 W/m2
09:08 62.4 °F /  16.9 °C 30.6 °F /  -0.8 °C 30.47in /  1031.7hPa East 0.9mph /  1.4km/h 10.0mph /  16.1km/h 30% 0.00in /  0mm 503.0 W/m2
09:14 63.1 °F /  17.3 °C 30.4 °F /  -0.9 °C 30.47in /  1031.7hPa North 0.9mph /  1.4km/h 5.0mph /  8km/h 29% 0.00in /  0mm 520.0 W/m2
09:20 63.7 °F /  17.6 °C 30.0 °F /  -1.1 °C 30.47in /  1031.7hPa NNE 4.0mph /  6.4km/h 6.0mph /  9.7km/h 28% 0.00in /  0mm 538.0 W/m2
09:26 64.0 °F /  17.8 °C 30.2 °F /  -1 °C 30.47in /  1031.7hPa NE 4.0mph /  6.4km/h 9.0mph /  14.5km/h 28% 0.00in /  0mm 554.0 W/m2
09:32 64.2 °F /  17.9 °C 29.5 °F /  -1.4 °C 30.47in /  1031.7hPa NNE 0.9mph /  1.4km/h 8.0mph /  12.9km/h 27% 0.00in /  0mm 568.0 W/m2
09:38 64.2 °F /  17.9 °C 29.5 °F /  -1.4 °C 30.47in /  1031.7hPa ENE 8.9mph /  14.3km/h 13.0mph /  20.9km/h 27% 0.00in /  0mm 585.0 W/m2
09:44 64.2 °F /  17.9 °C 29.5 °F /  -1.4 °C 30.47in /  1031.7hPa NE 4.0mph /  6.4km/h 11.0mph /  17.7km/h 27% 0.00in /  0mm 598.0 W/m2
09:50 64.2 °F /  17.9 °C 29.5 °F /  -1.4 °C 30.46in /  1031.4hPa NNE 4.9mph /  7.9km/h 7.0mph /  11.3km/h 27% 0.00in /  0mm 613.0 W/m2
09:57 64.4 °F /  18 °C 28.8 °F /  -1.8 °C 30.46in /  1031.4hPa Calm   7.0mph /  11.3km/h 26% 0.00in /  0mm 626.0 W/m2
10:03 64.9 °F /  18.3 °C 29.3 °F /  -1.5 °C 30.46in /  1031.4hPa North 4.9mph /  7.9km/h 16.0mph /  25.7km/h 26% 0.00in /  0mm 635.0 W/m2
10:09 64.9 °F /  18.3 °C 29.3 °F /  -1.5 °C 30.46in /  1031.4hPa NW 8.1mph /  13km/h 12.0mph /  19.3km/h 26% 0.00in /  0mm 647.0 W/m2
10:15 64.9 °F /  18.3 °C 29.3 °F /  -1.5 °C 30.46in /  1031.4hPa NNE 0.9mph /  1.4km/h 10.0mph /  16.1km/h 26% 0.00in /  0mm 661.0 W/m2
10:21 65.1 °F /  18.4 °C 29.3 °F /  -1.5 °C 30.45in /  1031hPa NNW 4.0mph /  6.4km/h 9.0mph /  14.5km/h 26% 0.00in /  0mm 668.0 W/m2
10:27 65.3 °F /  18.5 °C 29.5 °F /  -1.4 °C 30.45in /  1031hPa NNW 2.9mph /  4.7km/h 5.0mph /  8km/h 26% 0.00in /  0mm 679.0 W/m2
10:33 65.7 °F /  18.7 °C 29.8 °F /  -1.2 °C 30.45in /  1031hPa NNW 2.0mph /  3.2km/h 7.0mph /  11.3km/h 26% 0.00in /  0mm 687.0 W/m2
10:40 66.0 °F /  18.9 °C 30.2 °F /  -1 °C 30.44in /  1030.7hPa ENE 2.0mph /  3.2km/h 4.0mph /  6.4km/h 26% 0.00in /  0mm 694.0 W/m2
10:46 66.6 °F /  19.2 °C 30.6 °F /  -0.8 °C 30.44in /  1030.7hPa East 4.0mph /  6.4km/h 6.0mph /  9.7km/h 26% 0.00in /  0mm 703.0 W/m2
10:51 66.6 °F /  19.2 °C 30.6 °F /  -0.8 °C 30.44in /  1030.7hPa East 4.0mph /  6.4km/h 6.0mph /  9.7km/h 26% 0.00in /  0mm 703.0 W/m2
10:56 66.9 °F /  19.4 °C 28.9 °F /  -1.7 °C 30.44in /  1030.7hPa Calm   8.0mph /  12.9km/h 24% 0.00in /  0mm 717.0 W/m2
11:08 67.5 °F /  19.7 °C 29.5 °F /  -1.4 °C 30.44in /  1030.7hPa NNW 6.0mph /  9.7km/h 8.0mph /  12.9km/h 24% 0.00in /  0mm 728.0 W/m2
11:14 67.6 °F /  19.8 °C 29.5 °F /  -1.4 °C 30.44in /  1030.7hPa NNW 8.9mph /  14.3km/h 11.0mph /  17.7km/h 24% 0.00in /  0mm 733.0 W/m2
11:20 67.6 °F /  19.8 °C 29.5 °F /  -1.4 °C 30.43in /  1030.4hPa NE 8.1mph /  13km/h 9.0mph /  14.5km/h 24% 0.00in /  0mm 735.0 W/m2
11:26 67.8 °F /  19.9 °C 29.7 °F /  -1.3 °C 30.43in /  1030.4hPa NNW 2.9mph /  4.7km/h 7.0mph /  11.3km/h 24% 0.00in /  0mm 738.0 W/m2
11:32 68.2 °F /  20.1 °C 30.0 °F /  -1.1 °C 30.43in /  1030.4hPa NNE 14.1mph /  22.7km/h 14.1mph /  22.7km/h 24% 0.00in /  0mm 744.0 W/m2
11:39 68.2 °F /  20.1 °C 28.9 °F /  -1.7 °C 30.43in /  1030.4hPa NE 4.9mph /  7.9km/h 9.0mph /  14.5km/h 23% 0.00in /  0mm 744.0 W/m2
11:45 67.6 °F /  19.8 °C 29.5 °F /  -1.4 °C 30.42in /  1030hPa NNW 0.9mph /  1.4km/h 5.0mph /  8km/h 24% 0.00in /  0mm 742.0 W/m2
11:51 67.8 °F /  19.9 °C 29.7 °F /  -1.3 °C 30.42in /  1030hPa NE 2.9mph /  4.7km/h 7.0mph /  11.3km/h 24% 0.00in /  0mm 745.0 W/m2
11:57 68.2 °F /  20.1 °C 31.1 °F /  -0.5 °C 30.41in /  1029.7hPa East 8.1mph /  13km/h 8.1mph /  13km/h 25% 0.00in /  0mm 745.0 W/m2
12:03 68.5 °F /  20.3 °C 30.4 °F /  -0.9 °C 30.41in /  1029.7hPa SE 0.9mph /  1.4km/h 5.0mph /  8km/h 24% 0.00in /  0mm 744.0 W/m2
12:15 69.4 °F /  20.8 °C 30.0 °F /  -1.1 °C 30.40in /  1029.3hPa Calm   5.0mph /  8km/h 23% 0.00in /  0mm 740.0 W/m2
12:21 69.6 °F /  20.9 °C 30.2 °F /  -1 °C 30.40in /  1029.3hPa Calm   6.0mph /  9.7km/h 23% 0.00in /  0mm 735.0 W/m2
12:27 69.6 °F /  20.9 °C 31.3 °F /  -0.4 °C 30.40in /  1029.3hPa East 0.9mph /  1.4km/h 5.0mph /  8km/h 24% 0.00in /  0mm 731.0 W/m2
12:34 69.8 °F /  21 °C 30.4 °F /  -0.9 °C 30.40in /  1029.3hPa Calm   6.0mph /  9.7km/h 23% 0.00in /  0mm 728.0 W/m2
12:40 70.0 °F /  21.1 °C 30.6 °F /  -0.8 °C 30.39in /  1029hPa NNW 2.0mph /  3.2km/h 5.0mph /  8km/h 23% 0.00in /  0mm 721.0 W/m2
12:46 70.2 °F /  21.2 °C 30.6 °F /  -0.8 °C 30.39in /  1029hPa ENE 2.0mph /  3.2km/h 8.0mph /  12.9km/h 23% 0.00in /  0mm 715.0 W/m2
12:58 70.0 °F /  21.1 °C 31.5 °F /  -0.3 °C 30.38in /  1028.7hPa ENE 4.0mph /  6.4km/h 6.0mph /  9.7km/h 24% 0.00in /  0mm 705.0 W/m2
13:04 70.2 °F /  21.2 °C 30.6 °F /  -0.8 °C 30.38in /  1028.7hPa North 6.0mph /  9.7km/h 8.0mph /  12.9km/h 23% 0.00in /  0mm 696.0 W/m2
13:06 70.3 °F /  21.3 °C 30.7 °F /  -0.7 °C 30.38in /  1028.7hPa NNE 2.0mph /  3.2km/h 6.0mph /  9.7km/h 23% 0.00in /  0mm 694.0 W/m2
13:12 70.5 °F /  21.4 °C 29.8 °F /  -1.2 °C 30.38in /  1028.7hPa NNW 2.9mph /  4.7km/h 8.0mph /  12.9km/h 22% 0.00in /  0mm 684.0 W/m2
13:18 70.9 °F /  21.6 °C 30.2 °F /  -1 °C 30.37in /  1028.3hPa Calm   1.0mph /  1.6km/h 22% 0.00in /  0mm 677.0 W/m2
13:31 71.4 °F /  21.9 °C 29.5 °F /  -1.4 °C 30.37in /  1028.3hPa NNW 4.0mph /  6.4km/h 8.0mph /  12.9km/h 21% 0.00in /  0mm 656.0 W/m2
13:37 71.2 °F /  21.8 °C 29.3 °F /  -1.5 °C 30.37in /  1028.3hPa North 0.9mph /  1.4km/h 7.0mph /  11.3km/h 21% 0.00in /  0mm 647.0 W/m2
13:43 71.2 °F /  21.8 °C 30.4 °F /  -0.9 °C 30.36in /  1028hPa North 2.9mph /  4.7km/h 4.0mph /  6.4km/h 22% 0.00in /  0mm 633.0 W/m2
13:49 71.2 °F /  21.8 °C 30.4 °F /  -0.9 °C 30.36in /  1028hPa Calm   6.0mph /  9.7km/h 22% 0.00in /  0mm 621.0 W/m2
13:55 71.4 °F /  21.9 °C 30.6 °F /  -0.8 °C 30.36in /  1028hPa Calm   9.0mph /  14.5km/h 22% 0.00in /  0mm 610.0 W/m2
14:01 71.8 °F /  22.1 °C 30.9 °F /  -0.6 °C 30.36in /  1028hPa North 0.9mph /  1.4km/h 5.0mph /  8km/h 22% 0.00in /  0mm 592.0 W/m2
14:11 71.8 °F /  22.1 °C 30.9 °F /  -0.6 °C 30.36in /  1028hPa ENE 2.0mph /  3.2km/h 6.0mph /  9.7km/h 22% 0.00in /  0mm 573.0 W/m2
14:17 71.8 °F /  22.1 °C 30.9 °F /  -0.6 °C 30.36in /  1028hPa Calm   5.0mph /  8km/h 22% 0.00in /  0mm 557.0 W/m2
14:23 71.6 °F /  22 °C 29.7 °F /  -1.3 °C 30.36in /  1028hPa Calm   1.0mph /  1.6km/h 21% 0.00in /  0mm 543.0 W/m2
14:29 71.2 °F /  21.8 °C 30.4 °F /  -0.9 °C 30.35in /  1027.7hPa NE 0.9mph /  1.4km/h 7.0mph /  11.3km/h 22% 0.00in /  0mm 529.0 W/m2
14:35 71.1 °F /  21.7 °C 30.2 °F /  -1 °C 30.35in /  1027.7hPa NE 11.0mph /  17.7km/h 11.0mph /  17.7km/h 22% 0.00in /  0mm 512.0 W/m2
14:42 71.1 °F /  21.7 °C 30.2 °F /  -1 °C 30.35in /  1027.7hPa NNE 2.0mph /  3.2km/h 4.0mph /  6.4km/h 22% 0.00in /  0mm 496.0 W/m2
14:48 71.2 °F /  21.8 °C 30.4 °F /  -0.9 °C 30.34in /  1027.3hPa Calm   1.0mph /  1.6km/h 22% 0.00in /  0mm 480.0 W/m2
14:54 71.8 °F /  22.1 °C 30.9 °F /  -0.6 °C 30.34in /  1027.3hPa East 2.0mph /  3.2km/h 5.0mph /  8km/h 22% 0.00in /  0mm 464.0 W/m2
15:00 72.0 °F /  22.2 °C 31.1 °F /  -0.5 °C 30.34in /  1027.3hPa SSE 0.9mph /  1.4km/h 8.0mph /  12.9km/h 22% 0.00in /  0mm 443.0 W/m2
15:06 72.0 °F /  22.2 °C 29.8 °F /  -1.2 °C 30.34in /  1027.3hPa ENE 4.9mph /  7.9km/h 9.0mph /  14.5km/h 21% 0.00in /  0mm 427.0 W/m2
15:12 72.0 °F /  22.2 °C 31.1 °F /  -0.5 °C 30.34in /  1027.3hPa SE 0.9mph /  1.4km/h 6.0mph /  9.7km/h 22% 0.00in /  0mm 408.0 W/m2
15:18 72.0 °F /  22.2 °C 29.8 °F /  -1.2 °C 30.34in /  1027.3hPa NW 0.9mph /  1.4km/h 5.0mph /  8km/h 21% 0.00in /  0mm 387.0 W/m2
15:24 71.8 °F /  22.1 °C 30.9 °F /  -0.6 °C 30.34in /  1027.3hPa NE 0.9mph /  1.4km/h 5.0mph /  8km/h 22% 0.00in /  0mm 367.0 W/m2
15:31 71.4 °F /  21.9 °C 30.6 °F /  -0.8 °C 30.34in /  1027.3hPa Calm   3.0mph /  4.8km/h 22% 0.00in /  0mm 350.0 W/m2
15:37 71.2 °F /  21.8 °C 29.3 °F /  -1.5 °C 30.35in /  1027.7hPa NNE 4.0mph /  6.4km/h 9.0mph /  14.5km/h 21% 0.00in /  0mm 327.0 W/m2
15:43 70.9 °F /  21.6 °C 28.9 °F /  -1.7 °C 30.35in /  1027.7hPa NNW 0.9mph /  1.4km/h 6.0mph /  9.7km/h 21% 0.00in /  0mm 267.0 W/m2
15:49 70.7 °F /  21.5 °C 30.0 °F /  -1.1 °C 30.35in /  1027.7hPa Calm   1.0mph /  1.6km/h 22% 0.00in /  0mm 46.0 W/m2
15:55 70.5 °F /  21.4 °C 29.8 °F /  -1.2 °C 30.35in /  1027.7hPa Calm   2.0mph /  3.2km/h 22% 0.00in /  0mm 42.0 W/m2
16:01 70.2 °F /  21.2 °C 29.5 °F /  -1.4 °C 30.35in /  1027.7hPa NNE 4.9mph /  7.9km/h 7.0mph /  11.3km/h 22% 0.00in /  0mm 40.0 W/m2
16:07 70.0 °F /  21.1 °C 29.3 °F /  -1.5 °C 30.35in /  1027.7hPa East 0.9mph /  1.4km/h 5.0mph /  8km/h 22% 0.00in /  0mm 37.0 W/m2
16:13 69.8 °F /  21 °C 29.3 °F /  -1.5 °C 30.35in /  1027.7hPa East 0.9mph /  1.4km/h 4.0mph /  6.4km/h 22% 0.00in /  0mm 33.0 W/m2
16:19 69.6 °F /  20.9 °C 30.2 °F /  -1 °C 30.35in /  1027.7hPa ESE 4.0mph /  6.4km/h 6.0mph /  9.7km/h 23% 0.00in /  0mm 39.0 W/m2
16:26 69.3 °F /  20.7 °C 29.8 °F /  -1.2 °C 30.35in /  1027.7hPa Calm   8.0mph /  12.9km/h 23% 0.00in /  0mm 28.0 W/m2
16:38 68.7 °F /  20.4 °C 29.5 °F /  -1.4 °C 30.36in /  1028hPa NE 2.9mph /  4.7km/h 5.0mph /  8km/h 23% 0.00in /  0mm 23.0 W/m2
16:50 68.2 °F /  20.1 °C 30.0 °F /  -1.1 °C 30.36in /  1028hPa Calm   7.0mph /  11.3km/h 24% 0.00in /  0mm 21.0 W/m2
17:02 67.5 °F /  19.7 °C 29.5 °F /  -1.4 °C 30.36in /  1028hPa East 4.0mph /  6.4km/h 4.0mph /  6.4km/h 24% 0.00in /  0mm 18.0 W/m2
17:08 67.1 °F /  19.5 °C 30.0 °F /  -1.1 °C 30.36in /  1028hPa Calm   1.0mph /  1.6km/h 25% 0.00in /  0mm 14.0 W/m2
17:14 66.7 °F /  19.3 °C 29.8 °F /  -1.2 °C 30.36in /  1028hPa Calm   3.0mph /  4.8km/h 25% 0.00in /  0mm 11.0 W/m2
17:21 66.4 °F /  19.1 °C 29.5 °F /  -1.4 °C 30.36in /  1028hPa Calm   3.0mph /  4.8km/h 25% 0.00in /  0mm 7.0 W/m2
17:27 65.8 °F /  18.8 °C 28.9 °F /  -1.7 °C 30.37in /  1028.3hPa Calm   2.0mph /  3.2km/h 25% 0.00in /  0mm 5.0 W/m2
17:33 65.3 °F /  18.5 °C 29.5 °F /  -1.4 °C 30.37in /  1028.3hPa East 0.9mph /  1.4km/h 1.0mph /  1.6km/h 26% 0.00in /  0mm 0.0 W/m2
17:39 64.8 °F /  18.2 °C 29.1 °F /  -1.6 °C 30.37in /  1028.3hPa Calm   1.0mph /  1.6km/h 26% 0.00in /  0mm 0.0 W/m2
17:45 64.2 °F /  17.9 °C 29.5 °F /  -1.4 °C 30.38in /  1028.7hPa Calm     27% 0.00in /  0mm 0.0 W/m2
17:51 63.5 °F /  17.5 °C 29.8 °F /  -1.2 °C 30.38in /  1028.7hPa Calm     28% 0.00in /  0mm 0.0 W/m2
17:57 63.1 °F /  17.3 °C 29.5 °F /  -1.4 °C 30.38in /  1028.7hPa Calm     28% 0.00in /  0mm 0.0 W/m2
18:04 62.2 °F /  16.8 °C 29.7 °F /  -1.3 °C 30.38in /  1028.7hPa Calm     29% 0.00in /  0mm 0.0 W/m2
18:10 61.5 °F /  16.4 °C 28.9 °F /  -1.7 °C 30.38in /  1028.7hPa Calm     29% 0.00in /  0mm 0.0 W/m2
18:16 61.0 °F /  16.1 °C 29.3 °F /  -1.5 °C 30.38in /  1028.7hPa Calm   2.0mph /  3.2km/h 30% 0.00in /  0mm 0.0 W/m2
18:22 60.4 °F /  15.8 °C 28.9 °F /  -1.7 °C 30.39in /  1029hPa Calm   4.0mph /  6.4km/h 30% 0.00in /  0mm 0.0 W/m2
18:28 60.1 °F /  15.6 °C 29.3 °F /  -1.5 °C 30.39in /  1029hPa Calm   2.0mph /  3.2km/h 31% 0.00in /  0mm 0.0 W/m2
18:34 59.5 °F /  15.3 °C 28.9 °F /  -1.7 °C 30.39in /  1029hPa ESE 0.9mph /  1.4km/h 4.0mph /  6.4km/h 31% 0.00in /  0mm 0.0 W/m2
18:40 59.2 °F /  15.1 °C 29.3 °F /  -1.5 °C 30.39in /  1029hPa Calm   3.0mph /  4.8km/h 32% 0.00in /  0mm 0.0 W/m2
18:46 58.8 °F /  14.9 °C 28.9 °F /  -1.7 °C 30.40in /  1029.3hPa East 0.9mph /  1.4km/h 2.0mph /  3.2km/h 32% 0.00in /  0mm 0.0 W/m2
18:53 58.5 °F /  14.7 °C 28.8 °F /  -1.8 °C 30.40in /  1029.3hPa Calm   1.0mph /  1.6km/h 32% 0.00in /  0mm 0.0 W/m2
19:05 57.7 °F /  14.3 °C 29.5 °F /  -1.4 °C 30.40in /  1029.3hPa Calm   3.0mph /  4.8km/h 34% 0.00in /  0mm 0.0 W/m2
19:11 57.4 °F /  14.1 °C 29.3 °F /  -1.5 °C 30.41in /  1029.7hPa ENE 2.0mph /  3.2km/h 3.0mph /  4.8km/h 34% 0.00in /  0mm 0.0 W/m2
19:17 57.2 °F /  14 °C 29.1 °F /  -1.6 °C 30.41in /  1029.7hPa East 2.0mph /  3.2km/h 2.0mph /  3.2km/h 34% 0.00in /  0mm 0.0 W/m2
19:23 56.8 °F /  13.8 °C 28.8 °F /  -1.8 °C 30.41in /  1029.7hPa Calm   1.0mph /  1.6km/h 34% 0.00in /  0mm 0.0 W/m2
19:29 56.7 °F /  13.7 °C 29.3 °F /  -1.5 °C 30.41in /  1029.7hPa Calm   1.0mph /  1.6km/h 35% 0.00in /  0mm 0.0 W/m2
19:36 56.1 °F /  13.4 °C 28.8 °F /  -1.8 °C 30.41in /  1029.7hPa Calm   1.0mph /  1.6km/h 35% 0.00in /  0mm 0.0 W/m2
19:42 55.9 °F /  13.3 °C 28.8 °F /  -1.8 °C 30.41in /  1029.7hPa Calm     35% 0.00in /  0mm 0.0 W/m2
19:48 55.8 °F /  13.2 °C 29.1 °F /  -1.6 °C 30.41in /  1029.7hPa Calm   1.0mph /  1.6km/h 36% 0.00in /  0mm 0.0 W/m2
19:54 55.2 °F /  12.9 °C 28.8 °F /  -1.8 °C 30.41in /  1029.7hPa Calm   1.0mph /  1.6km/h 36% 0.00in /  0mm 0.0 W/m2
20:00 55.0 °F /  12.8 °C 29.3 °F /  -1.5 °C 30.41in /  1029.7hPa Calm   1.0mph /  1.6km/h 37% 0.00in /  0mm 0.0 W/m2
20:06 54.9 °F /  12.7 °C 29.1 °F /  -1.6 °C 30.42in /  1030hPa East 2.0mph /  3.2km/h 3.0mph /  4.8km/h 37% 0.00in /  0mm 0.0 W/m2
20:12 54.9 °F /  12.7 °C 29.1 °F /  -1.6 °C 30.42in /  1030hPa Calm   4.0mph /  6.4km/h 37% 0.00in /  0mm 0.0 W/m2
20:19 54.9 °F /  12.7 °C 29.1 °F /  -1.6 °C 30.42in /  1030hPa East 0.9mph /  1.4km/h 3.0mph /  4.8km/h 37% 0.00in /  0mm 0.0 W/m2
20:25 54.7 °F /  12.6 °C 28.9 °F /  -1.7 °C 30.42in /  1030hPa Calm   1.0mph /  1.6km/h 37% 0.00in /  0mm 0.0 W/m2
20:31 54.5 °F /  12.5 °C 29.5 °F /  -1.4 °C 30.42in /  1030hPa Calm     38% 0.00in /  0mm 0.0 W/m2
20:37 54.3 °F /  12.4 °C 29.3 °F /  -1.5 °C 30.42in /  1030hPa Calm     38% 0.00in /  0mm 0.0 W/m2
20:43 54.1 °F /  12.3 °C 29.1 °F /  -1.6 °C 30.42in /  1030hPa Calm   1.0mph /  1.6km/h 38% 0.00in /  0mm 0.0 W/m2
20:49 54.0 °F /  12.2 °C 28.9 °F /  -1.7 °C 30.42in /  1030hPa Calm   1.0mph /  1.6km/h 38% 0.00in /  0mm 0.0 W/m2
20:55 53.8 °F /  12.1 °C 28.8 °F /  -1.8 °C 30.42in /  1030hPa Calm     38% 0.00in /  0mm 0.0 W/m2
21:01 53.4 °F /  11.9 °C 29.1 °F /  -1.6 °C 30.43in /  1030.4hPa Calm   2.0mph /  3.2km/h 39% 0.00in /  0mm 0.0 W/m2
21:13 53.1 °F /  11.7 °C 29.3 °F /  -1.5 °C 30.43in /  1030.4hPa Calm   1.0mph /  1.6km/h 40% 0.00in /  0mm 0.0 W/m2
21:19 53.1 °F /  11.7 °C 28.8 °F /  -1.8 °C 30.43in /  1030.4hPa Calm     39% 0.00in /  0mm 0.0 W/m2
21:26 52.9 °F /  11.6 °C 29.3 °F /  -1.5 °C 30.43in /  1030.4hPa Calm   1.0mph /  1.6km/h 40% 0.00in /  0mm 0.0 W/m2
21:32 52.9 °F /  11.6 °C 29.3 °F /  -1.5 °C 30.43in /  1030.4hPa Calm     40% 0.00in /  0mm 0.0 W/m2
21:38 52.9 °F /  11.6 °C 29.3 °F /  -1.5 °C 30.43in /  1030.4hPa Calm     40% 0.00in /  0mm 0.0 W/m2
21:44 52.7 °F /  11.5 °C 29.1 °F /  -1.6 °C 30.44in /  1030.7hPa Calm     40% 0.00in /  0mm 0.0 W/m2
21:50 52.5 °F /  11.4 °C 28.9 °F /  -1.7 °C 30.44in /  1030.7hPa Calm     40% 0.00in /  0mm 0.0 W/m2
21:57 52.5 °F /  11.4 °C 28.9 °F /  -1.7 °C 30.44in /  1030.7hPa Calm     40% 0.00in /  0mm 0.0 W/m2
22:03 52.3 °F /  11.3 °C 29.3 °F /  -1.5 °C 30.44in /  1030.7hPa Calm     41% 0.00in /  0mm 0.0 W/m2
22:09 52.2 °F /  11.2 °C 29.1 °F /  -1.6 °C 30.44in /  1030.7hPa Calm     41% 0.00in /  0mm 0.0 W/m2
22:15 51.8 °F /  11 °C 28.8 °F /  -1.8 °C 30.44in /  1030.7hPa Calm   3.0mph /  4.8km/h 41% 0.00in /  0mm 0.0 W/m2
22:21 51.6 °F /  10.9 °C 29.3 °F /  -1.5 °C 30.44in /  1030.7hPa Calm     42% 0.00in /  0mm 0.0 W/m2
22:27 51.4 °F /  10.8 °C 29.1 °F /  -1.6 °C 30.44in /  1030.7hPa Calm     42% 0.00in /  0mm 0.0 W/m2
22:33 51.3 °F /  10.7 °C 28.9 °F /  -1.7 °C 30.44in /  1030.7hPa Calm     42% 0.00in /  0mm 0.0 W/m2
22:39 51.1 °F /  10.6 °C 28.8 °F /  -1.8 °C 30.44in /  1030.7hPa Calm     42% 0.00in /  0mm 0.0 W/m2
22:45 50.9 °F /  10.5 °C 29.1 °F /  -1.6 °C 30.44in /  1030.7hPa Calm     43% 0.00in /  0mm 0.0 W/m2
22:52 50.5 °F /  10.3 °C 28.9 °F /  -1.7 °C 30.44in /  1030.7hPa Calm     43% 0.00in /  0mm 0.0 W/m2
22:58 50.2 °F /  10.1 °C 29.1 °F /  -1.6 °C 30.43in /  1030.4hPa Calm     44% 0.00in /  0mm 0.0 W/m2
23:03 50.0 °F /  10 °C 28.9 °F /  -1.7 °C 30.44in /  1030.7hPa Calm     44% 0.00in /  0mm 0.0 W/m2
23:10 49.5 °F /  9.7 °C 28.9 °F /  -1.7 °C 30.44in /  1030.7hPa Calm     45% 0.00in /  0mm 0.0 W/m2
23:16 49.3 °F /  9.6 °C 29.3 °F /  -1.5 °C 30.44in /  1030.7hPa Calm     46% 0.00in /  0mm 0.0 W/m2
23:22 48.9 °F /  9.4 °C 29.1 °F /  -1.6 °C 30.44in /  1030.7hPa Calm   1.0mph /  1.6km/h 46% 0.00in /  0mm 0.0 W/m2
23:28 48.7 °F /  9.3 °C 28.9 °F /  -1.7 °C 30.44in /  1030.7hPa Calm     46% 0.00in /  0mm 0.0 W/m2
23:34 48.6 °F /  9.2 °C 29.3 °F /  -1.5 °C 30.44in /  1030.7hPa Calm   1.0mph /  1.6km/h 47% 0.00in /  0mm 0.0 W/m2
23:40 48.4 °F /  9.1 °C 29.1 °F /  -1.6 °C 30.44in /  1030.7hPa Calm   1.0mph /  1.6km/h 47% 0.00in /  0mm 0.0 W/m2
23:46 48.0 °F /  8.9 °C 29.3 °F /  -1.5 °C 30.44in /  1030.7hPa Calm     48% 0.00in /  0mm 0.0 W/m2
23:52 47.8 °F /  8.8 °C 29.1 °F /  -1.6 °C 30.44in /  1030.7hPa Calm   1.0mph /  1.6km/h 48% 0.00in /  0mm 0.0 W/m2
23:58 47.7 °F /  8.7 °C 29.5 °F /  -1.4 °C 30.44in /  1030.7hPa ESE 0.9mph /  1.4km/h 1.0mph /  1.6km/h 49% 0.00in /  0mm 0.0 W/m2
Olympia, Windhoek, Namibia
Compliments of Weather Underground - 3 mb